Time;durP1;ratioP1;P1;durP2;ratioP2;P2;SDS_P1;SDS_P2;PMS_P1;PMS_P2;Temp;Humidity;BMP_temperature;BMP_pressure;BME280_temperature;BME280_humidity;BME280_pressure;Samples;Min_cycle;Max_cycle;Signal;HPM_P1;HPM_P2
2021/07/04 00:00:43;;;;;;;5.57;4.35;;;;;;;22.55;73.35;100180.63;4940342;28;102212;-62
2021/07/04 00:03:12;;;;;;;5.70;5.20;;;;;;;22.55;73.32;100180.63;4951535;27;102590;-62
2021/07/04 00:05:38;;;;;;;;;;;;;;;22.55;73.21;100183.38;4950156;27;104202;-62
2021/07/04 00:08:08;;;;;;;5.25;4.85;;;;;;;22.55;73.23;100180.63;4942728;27;102158;-62
2021/07/04 00:10:37;;;;;;;5.68;5.20;;;;;;;22.54;73.11;100179.00;4930099;27;102487;-63
2021/07/04 00:13:04;;;;;;;5.13;4.72;;;;;;;22.54;73.22;100174.25;4949586;27;102180;-62
2021/07/04 00:15:38;;;;;;;5.22;4.82;;;;;;;22.55;73.24;100175.06;4941734;27;103897;-62
2021/07/04 00:18:05;;;;;;;5.60;5.10;;;;;;;22.54;73.23;100190.91;4937204;27;102238;-62
2021/07/04 00:20:34;;;;;;;5.30;4.90;;;;;;;22.55;73.09;100188.94;4938951;27;102583;-62
2021/07/04 00:23:00;;;;;;;5.30;4.80;;;;;;;22.55;73.22;100186.16;4942517;27;102314;-63
2021/07/04 00:25:28;;;;;;;5.38;4.97;;;;;;;22.55;73.29;100180.63;4938812;27;103806;-63
2021/07/04 00:27:56;;;;;;;5.20;4.80;;;;;;;22.54;73.33;100182.59;4952250;27;102432;-62
2021/07/04 00:30:25;;;;;;;5.50;5.00;;;;;;;22.55;73.19;100186.16;4941187;27;102403;-62
2021/07/04 00:32:53;;;;;;;21.15;6.32;;;;;;;22.55;73.19;100186.16;4945079;27;102346;-62
2021/07/04 00:35:21;;;;;;;5.28;4.88;;;;;;;22.55;73.35;100186.16;4943792;28;103723;-62
2021/07/04 00:37:50;;;;;;;5.68;5.28;;;;;;;22.54;73.15;100190.09;4939998;27;102341;-63
2021/07/04 00:40:18;;;;;;;6.20;5.70;;;;;;;22.54;73.41;100195.66;4935560;27;102215;-62
2021/07/04 00:42:45;;;;;;;6.30;5.70;;;;;;;22.55;73.12;100194.47;4943762;27;102238;-62
2021/07/04 00:45:13;;;;;;;5.57;5.18;;;;;;;22.55;73.29;100186.97;4938988;27;104037;-62
2021/07/04 00:47:40;;;;;;;6.30;5.55;;;;;;;22.54;73.37;100185.38;4941594;27;102264;-62
2021/07/04 00:50:10;;;;;;;5.68;5.18;;;;;;;22.55;73.44;100175.06;4937835;27;102455;-62
2021/07/04 00:52:38;;;;;;;6.55;6.03;;;;;;;22.54;73.35;100171.50;4945572;27;101981;-62
2021/07/04 00:55:08;;;;;;;6.22;5.65;;;;;;;22.54;73.26;100174.25;4944872;27;104253;-63
2021/07/04 00:57:36;;;;;;;6.57;6.07;;;;;;;22.55;72.70;100175.06;4941694;27;103247;-62
2021/07/04 01:00:05;;;;;;;6.47;5.97;;;;;;;22.55;73.19;100175.06;4944940;27;102685;-62
2021/07/04 01:02:32;;;;;;;6.25;5.75;;;;;;;22.55;73.26;100170.31;4947706;27;102207;-62
2021/07/04 01:04:58;;;;;;;6.05;5.55;;;;;;;22.55;73.12;100163.97;4937824;27;103889;-62
2021/07/04 01:07:25;;;;;;;7.05;6.45;;;;;;;22.55;73.14;100163.97;4938828;28;102121;-63
2021/07/04 01:09:53;;;;;;;6.40;5.88;;;;;;;22.54;73.29;100167.94;4945005;27;102283;-62
2021/07/04 01:12:21;;;;;;;6.27;5.77;;;;;;;22.54;73.23;100167.94;4944114;27;102220;-62
2021/07/04 01:14:48;;;;;;;6.53;5.93;;;;;;;22.53;73.07;100169.06;4943018;27;104091;-62
2021/07/04 01:17:15;;;;;;;6.70;6.10;;;;;;;22.54;73.09;100167.94;4942119;27;102319;-62
2021/07/04 01:19:52;;;;;;;6.78;6.18;;;;;;;22.54;73.03;100167.94;4938110;27;101994;-62
2021/07/04 01:22:19;;;;;;;7.32;6.65;;;;;;;22.53;73.16;100167.09;4941323;27;102241;-62
2021/07/04 01:24:47;;;;;;;6.80;6.13;;;;;;;22.53;73.23;100160.75;4942048;27;103880;-62
2021/07/04 01:27:13;;;;;;;6.80;6.20;;;;;;;22.53;73.24;100163.53;4946933;27;102587;-62
2021/07/04 01:29:40;;;;;;;6.30;5.80;;;;;;;22.54;72.98;100154.06;4940960;27;102361;-62
2021/07/04 01:32:08;;;;;;;6.53;5.93;;;;;;;22.53;72.94;100153.22;4942214;27;102249;-62
2021/07/04 01:34:34;;;;;;;6.28;5.78;;;;;;;22.54;72.96;100151.28;4934297;27;104073;-62
2021/07/04 01:37:01;;;;;;;6.35;5.85;;;;;;;22.52;73.01;100148.84;4941380;27;102497;-63
2021/07/04 01:39:28;;;;;;;6.63;6.05;;;;;;;22.53;73.03;100155.22;4942359;27;103170;-62
2021/07/04 01:41:56;;;;;;;6.50;6.00;;;;;;;22.53;73.06;100149.66;4937843;27;102459;-62
2021/07/04 01:44:23;;;;;;;;;;;;;;;22.54;73.24;100156.84;4942855;27;102962;-63
2021/07/04 01:46:49;;;;;;;6.82;6.18;;;;;;;22.53;73.08;100149.66;4938793;28;102451;-62
2021/07/04 01:49:16;;;;;;;6.53;6.00;;;;;;;22.54;73.31;100156.84;4942574;27;102395;-62
2021/07/04 01:51:43;;;;;;;6.68;6.07;;;;;;;22.52;73.18;100146.09;4937551;27;103138;-62
2021/07/04 01:54:09;;;;;;;6.72;6.18;;;;;;;22.53;73.17;100156.00;4934778;27;103565;-62
2021/07/04 01:56:36;;;;;;;6.63;6.03;;;;;;;22.53;73.00;100156.00;4945047;27;102411;-62
2021/07/04 01:59:04;;;;;;;6.53;6.03;;;;;;;22.54;73.08;100156.84;4942810;27;102593;-62
2021/07/04 02:01:31;;;;;;;6.18;5.68;;;;;;;22.54;73.05;100162.38;4949317;27;102419;-62
2021/07/04 02:03:57;;;;;;;6.97;6.13;;;;;;;22.53;73.04;100164.31;4949091;27;104069;-62
2021/07/04 02:06:25;;;;;;;7.32;6.63;;;;;;;22.53;73.23;100161.56;4947281;27;102788;-62
2021/07/04 02:08:51;;;;;;;6.88;6.28;;;;;;;22.53;73.14;100160.75;4944042;27;102204;-62
2021/07/04 02:11:18;;;;;;;6.60;6.10;;;;;;;22.52;73.06;100161.94;4940621;27;102343;-62
2021/07/04 02:14:00;;;;;;;6.80;6.10;;;;;;;22.52;73.04;100162.72;4958115;27;103933;-62
2021/07/04 02:16:28;;;;;;;7.20;6.50;;;;;;;22.52;73.15;100167.47;4929915;27;102484;-63
2021/07/04 02:18:54;;;;;;;7.10;6.40;;;;;;;22.51;73.16;100155.59;4950312;27;102142;-62
2021/07/04 02:21:21;;;;;;;7.05;6.45;;;;;;;22.51;73.03;100161.13;4936878;27;102707;-62
2021/07/04 02:23:48;;;;;;;7.03;6.43;;;;;;;22.52;73.16;100150.84;4939783;27;103677;-63
2021/07/04 02:26:14;;;;;;;6.97;6.28;;;;;;;22.51;73.09;100157.56;4944347;27;102510;-62
2021/07/04 02:28:41;;;;;;;7.18;6.57;;;;;;;22.51;72.86;100163.09;4941619;28;103388;-62
2021/07/04 02:31:08;;;;;;;6.82;6.32;;;;;;;22.51;73.10;100163.91;4941014;28;102551;-62
2021/07/04 02:33:37;;;;;;;6.95;6.35;;;;;;;22.51;72.89;100163.09;4942475;27;103970;-62
2021/07/04 02:36:04;;;;;;;7.40;6.60;;;;;;;22.52;72.99;100171.03;4938675;27;102234;-62
2021/07/04 02:38:31;;;;;;;7.13;6.53;;;;;;;22.52;73.10;100164.69;4941169;27;101953;-62
2021/07/04 02:40:58;;;;;;;7.93;7.18;;;;;;;22.51;72.85;100163.91;4931736;27;102441;-62
2021/07/04 02:43:26;;;;;;;7.40;6.72;;;;;;;22.51;73.12;100168.66;4947893;27;104129;-62
2021/07/04 02:45:53;;;;;;;6.97;6.43;;;;;;;22.51;72.87;100168.66;4935850;28;102542;-62
2021/07/04 02:48:20;;;;;;;6.55;6.00;;;;;;;22.51;72.88;100174.19;4938290;27;102554;-62
2021/07/04 02:51:01;;;;;;;6.75;6.25;;;;;;;22.51;73.05;100157.56;4941295;27;102467;-63
2021/07/04 02:53:27;;;;;;;7.03;6.43;;;;;;;22.50;72.96;100161.47;4936532;27;104011;-62
2021/07/04 02:55:54;;;;;;;7.50;6.90;;;;;;;22.51;73.16;100157.56;4940494;27;102486;-65
2021/07/04 02:58:21;;;;;;;7.40;6.80;;;;;;;22.51;73.08;100160.34;4941752;27;102171;-64
2021/07/04 03:00:47;;;;;;;7.30;6.70;;;;;;;22.51;72.96;100149.25;4941446;27;102506;-62
2021/07/04 03:03:14;;;;;;;7.97;7.38;;;;;;;22.51;73.01;100160.34;4943421;27;103694;-62
2021/07/04 03:05:42;;;;;;;;;;;;;;;22.51;73.19;100157.56;4955392;28;102693;-62
2021/07/04 03:08:10;;;;;;;7.80;7.10;;;;;;;22.50;73.13;100150.38;4950194;27;101496;-62
2021/07/04 03:10:36;;;;;;;7.00;6.40;;;;;;;22.51;73.04;100157.56;4948951;28;101999;-62
2021/07/04 03:13:04;;;;;;;6.97;6.43;;;;;;;22.50;72.84;100164.25;4937898;27;105325;-62
2021/07/04 03:15:30;;;;;;;7.68;7.03;;;;;;;22.50;72.61;100162.31;4942446;27;102636;-62
2021/07/04 03:17:57;;;;;;;8.13;7.43;;;;;;;22.50;73.06;100159.53;4950568;27;102539;-62
2021/07/04 03:20:24;;;;;;;7.90;7.20;;;;;;;22.50;73.07;100155.94;4952653;27;102427;-62
2021/07/04 03:22:51;;;;;;;7.95;7.25;;;;;;;22.52;73.03;100153.59;4949695;27;103853;-62
2021/07/04 03:25:20;;;;;;;8.60;7.90;;;;;;;22.50;72.88;100158.72;4947369;27;102502;-63
2021/07/04 03:27:47;;;;;;;8.68;7.90;;;;;;;22.52;72.54;100159.16;4944341;27;102276;-62
2021/07/04 03:30:16;;;;;;;7.72;7.05;;;;;;;22.51;72.93;100154.78;4948393;27;102271;-62
2021/07/04 03:32:43;;;;;;;8.52;7.68;;;;;;;22.51;72.88;100157.56;4946775;27;103401;-62
2021/07/04 03:35:12;;;;;;;8.20;7.50;;;;;;;22.51;72.85;100146.47;4942800;27;102124;-62
2021/07/04 03:37:40;;;;;;;7.35;6.78;;;;;;;22.51;73.00;100152.81;4941753;27;102437;-62
2021/07/04 03:40:09;;;;;;;7.80;7.10;;;;;;;22.51;72.91;100146.47;4946945;27;102164;-62
2021/07/04 03:42:37;;;;;;;7.40;6.80;;;;;;;22.51;72.81;100146.47;4944385;27;103881;-62
2021/07/04 03:45:05;;;;;;;7.47;6.77;;;;;;;22.52;73.00;100146.09;4940417;28;102490;-62
2021/07/04 03:47:32;;;;;;;7.22;6.63;;;;;;;22.52;72.72;100148.84;4946632;27;102486;-62
2021/07/04 03:49:59;;;;;;;7.88;7.18;;;;;;;22.52;72.76;100153.59;4937991;27;102658;-62
2021/07/04 03:52:27;;;;;;;7.47;6.85;;;;;;;22.52;72.81;100153.59;4938410;27;103912;-62
2021/07/04 03:54:53;;;;;;;6.88;6.28;;;;;;;22.53;72.84;100160.75;4942707;27;102093;-62
2021/07/04 03:57:24;;;;;;;6.32;5.72;;;;;;;22.55;73.06;100172.28;4940391;28;102553;-62
2021/07/04 03:59:54;;;;;;;6.93;6.32;;;;;;;22.54;72.93;100168.72;4948915;27;102490;-62
2021/07/04 04:02:22;;;;;;;6.55;5.95;;;;;;;22.55;73.22;100172.28;4933464;27;104174;-62
2021/07/04 04:04:49;;;;;;;6.47;5.97;;;;;;;22.56;73.18;100165.56;4946652;27;102293;-62
2021/07/04 04:07:15;;;;;;;6.32;5.82;;;;;;;22.55;73.10;100163.97;4945623;27;102416;-62
2021/07/04 04:09:42;;;;;;;6.20;5.70;;;;;;;22.57;73.41;100164.41;4945833;27;102576;-62
2021/07/04 04:12:29;;;;;;;7.10;6.50;;;;;;;22.58;73.32;100162.44;4940236;27;104114;-62
2021/07/04 04:14:57;;;;;;;6.63;6.07;;;;;;;22.57;73.51;100161.63;4938759;27;102593;-62
2021/07/04 04:17:24;;;;;;;6.90;6.18;;;;;;;22.58;73.46;100157.69;4938091;27;102379;-62
2021/07/04 04:19:52;;;;;;;6.45;5.95;;;;;;;22.58;73.77;100157.69;4940176;27;102494;-63
2021/07/04 04:22:19;;;;;;;6.60;6.10;;;;;;;22.59;73.66;100164.84;4937755;28;103182;-62
2021/07/04 04:24:46;;;;;;;7.00;6.40;;;;;;;22.59;73.49;100167.63;4938713;27;102351;-62
2021/07/04 04:27:13;;;;;;;6.93;6.35;;;;;;;22.60;73.62;100163.66;4942189;27;102188;-62
2021/07/04 04:29:40;;;;;;;6.68;6.15;;;;;;;22.60;73.75;100166.44;4944750;27;102232;-62
2021/07/04 04:32:09;;;;;;;6.68;6.10;;;;;;;22.60;73.84;100171.97;4945418;27;103272;-62
2021/07/04 04:34:35;;;;;;;7.00;6.43;;;;;;;22.61;73.73;100175.56;4934058;27;102654;-62
2021/07/04 04:37:03;;;;;;;6.88;6.38;;;;;;;22.60;73.58;100171.97;4931155;28;102033;-62
2021/07/04 04:39:30;;;;;;;7.10;6.50;;;;;;;22.61;73.91;100168.06;4946654;28;103451;-62
2021/07/04 04:41:57;;;;;;;6.82;6.22;;;;;;;22.60;73.62;100169.22;4946463;27;104133;-62
2021/07/04 04:44:24;;;;;;;7.13;6.53;;;;;;;22.61;73.92;100162.53;4939209;27;102180;-62
2021/07/04 04:46:50;;;;;;;7.35;6.65;;;;;;;22.62;73.67;100169.66;4950577;27;102064;-62
2021/07/04 04:49:19;;;;;;;8.43;7.72;;;;;;;22.59;73.67;100159.28;4933736;27;102166;-63
2021/07/04 04:51:46;;;;;;;7.80;7.10;;;;;;;22.62;74.02;100152.22;4948494;27;102704;-62
2021/07/04 04:54:12;;;;;;;7.30;6.70;;;;;;;22.61;73.76;100151.44;4945253;28;102561;-62
2021/07/04 04:56:39;;;;;;;8.40;7.70;;;;;;;22.63;73.90;100148.28;4936427;27;102527;-62
2021/07/04 04:59:05;;;;;;;7.80;7.10;;;;;;;22.62;73.75;100150.25;4946165;27;102395;-62
2021/07/04 05:01:33;;;;;;;7.45;6.85;;;;;;;22.62;73.72;100146.69;4939216;27;104711;-62
2021/07/04 05:03:59;;;;;;;7.97;7.28;;;;;;;22.63;73.71;100149.06;4935305;27;102706;-61
2021/07/04 05:06:27;;;;;;;8.05;7.35;;;;;;;22.64;74.09;100147.91;4936428;27;102510;-62
2021/07/04 05:08:54;;;;;;;7.85;7.15;;;;;;;22.63;73.73;100149.06;4943073;27;102645;-62
2021/07/04 05:11:21;;;;;;;7.93;7.13;;;;;;;22.64;73.68;100128.47;4943935;27;104442;-62
2021/07/04 05:13:47;;;;;;;7.55;6.95;;;;;;;22.64;73.97;100127.69;4936798;27;102480;-62
2021/07/04 05:16:13;;;;;;;8.18;7.47;;;;;;;22.66;73.92;100136.44;4931763;27;102372;-62
2021/07/04 05:18:40;;;;;;;7.90;7.30;;;;;;;22.66;73.82;100131.69;4942144;27;102791;-62
2021/07/04 05:21:07;;;;;;;7.82;7.13;;;;;;;22.67;73.79;100130.53;4934055;27;103484;-62
2021/07/04 05:23:35;;;;;;;8.02;7.32;;;;;;;22.67;73.74;100115.84;4942839;27;102497;-62
2021/07/04 05:26:01;;;;;;;7.57;6.97;;;;;;;22.67;73.84;100105.56;4940820;27;102242;-61
2021/07/04 05:28:28;;;;;;;8.40;7.70;;;;;;;22.68;73.92;100106.34;4944721;27;102133;-61
2021/07/04 05:30:55;;;;;;;8.07;7.38;;;;;;;22.69;73.95;100107.97;4943664;27;103881;-61
2021/07/04 05:33:23;;;;;;;10.20;7.88;;;;;;;22.69;73.72;100111.56;4945410;27;102472;-62
2021/07/04 05:35:50;;;;;;;8.00;7.30;;;;;;;22.70;73.71;100115.94;4941398;27;102480;-61
2021/07/04 05:38:20;;;;;;;8.70;7.95;;;;;;;22.72;73.63;100110.81;4945716;27;102292;-61
2021/07/04 05:40:50;;;;;;;7.93;7.25;;;;;;;22.73;73.72;100115.19;4943494;27;103914;-61
2021/07/04 05:43:17;;;;;;;7.68;7.07;;;;;;;22.74;73.62;100125.09;4936570;27;103037;-62
2021/07/04 05:45:44;;;;;;;8.20;7.50;;;;;;;22.75;73.53;100132.25;4932462;27;102303;-62
2021/07/04 05:48:11;;;;;;;7.70;7.00;;;;;;;22.75;73.58;100135.03;4933334;27;102750;-61
2021/07/04 05:50:37;;;;;;;7.93;7.32;;;;;;;22.77;73.49;100137.44;4937284;27;103661;-62
2021/07/04 05:53:04;;;;;;;8.15;7.38;;;;;;;22.77;73.50;100135.47;4932210;27;102470;-61
2021/07/04 05:55:31;;;;;;;7.97;7.28;;;;;;;22.78;73.50;100139.84;4943739;27;102344;-62
2021/07/04 05:57:59;;;;;;;7.60;7.00;;;;;;;22.79;73.74;100135.91;4944440;27;102251;-62
2021/07/04 06:00:25;;;;;;;7.47;6.87;;;;;;;22.79;73.59;100135.91;4940148;27;104859;-62
2021/07/04 06:02:52;;;;;;;7.75;7.15;;;;;;;22.80;73.40;100133.94;4940856;27;102394;-61
2021/07/04 06:05:18;;;;;;;7.63;7.03;;;;;;;22.80;73.61;100136.72;4942450;27;102150;-62
2021/07/04 06:07:46;;;;;;;7.65;6.95;;;;;;;22.78;73.56;100128.75;4944336;27;102584;-62
2021/07/04 06:10:13;;;;;;;7.80;7.20;;;;;;;22.80;73.54;100136.72;4929606;27;104013;-62
2021/07/04 06:12:41;;;;;;;8.32;7.53;;;;;;;22.78;73.62;100139.84;4957436;27;102468;-62
2021/07/04 06:15:10;;;;;;;7.65;6.97;;;;;;;22.78;73.64;100139.84;4929765;27;102393;-62
2021/07/04 06:17:37;;;;;;;8.30;7.60;;;;;;;22.79;73.51;100151.75;4942101;28;102480;-61
2021/07/04 06:20:06;;;;;;;8.07;7.47;;;;;;;22.78;73.39;100155.69;4959581;27;104046;-62
2021/07/04 06:22:33;;;;;;;8.10;7.40;;;;;;;22.77;73.91;100154.09;4943365;27;102242;-62
2021/07/04 06:25:03;;;;;;;8.48;7.68;;;;;;;22.77;73.69;100154.09;4940429;28;102685;-62
2021/07/04 06:27:30;;;;;;;7.72;7.13;;;;;;;22.77;73.58;100166.00;4938382;28;102256;-62
2021/07/04 06:29:57;;;;;;;8.75;7.90;;;;;;;22.77;73.60;100170.75;4948570;27;103604;-62
2021/07/04 06:32:25;;;;;;;8.27;7.47;;;;;;;22.77;73.79;100159.66;4938519;27;102339;-62
2021/07/04 06:34:52;;;;;;;8.13;7.43;;;;;;;22.76;73.78;100156.06;4930994;27;102885;-61
2021/07/04 06:37:19;;;;;;;8.45;7.75;;;;;;;22.76;73.74;100160.81;4932188;27;102217;-62
2021/07/04 06:39:46;;;;;;;8.65;7.85;;;;;;;22.75;73.65;100168.31;4942414;27;103902;-62
2021/07/04 06:42:13;;;;;;;8.25;7.53;;;;;;;22.76;73.71;100167.16;4940554;28;102345;-61
2021/07/04 06:44:39;;;;;;;8.20;7.40;;;;;;;22.75;73.75;100168.31;4938707;27;102589;-61
2021/07/04 06:47:06;;;;;;;8.13;7.43;;;;;;;22.76;73.75;100166.38;4937488;27;102447;-62
2021/07/04 06:49:34;;;;;;;8.02;7.32;;;;;;;22.75;73.79;100162.75;4938577;27;103875;-62
2021/07/04 06:52:00;;;;;;;8.50;7.80;;;;;;;22.75;73.67;100167.53;4944532;27;102627;-62
2021/07/04 06:54:27;;;;;;;7.97;7.35;;;;;;;22.76;73.75;100169.16;4943449;27;102284;-61
2021/07/04 06:56:53;;;;;;;7.82;7.20;;;;;;;22.75;73.80;100162.75;4934941;28;102459;-62
2021/07/04 06:59:22;;;;;;;8.70;7.90;;;;;;;22.76;73.63;100164.41;4938846;27;105914;-62
2021/07/04 07:01:48;;;;;;;8.18;7.53;;;;;;;22.75;73.80;100159.19;4944721;27;102163;-62
2021/07/04 07:04:15;;;;;;;7.05;6.45;;;;;;;22.76;73.67;100167.16;4944660;27;102468;-62
2021/07/04 07:06:43;;;;;;;8.20;7.45;;;;;;;22.75;73.73;100162.75;4942365;27;102554;-62
2021/07/04 07:09:10;;;;;;;8.23;7.45;;;;;;;22.75;73.62;100151.66;4945568;27;104056;-62
2021/07/04 07:11:36;;;;;;;7.55;6.95;;;;;;;22.75;73.88;100151.66;4947522;27;102341;-61
2021/07/04 07:14:04;;;;;;;8.07;7.38;;;;;;;22.76;73.71;100150.53;4944861;27;102635;-62
2021/07/04 07:16:31;;;;;;;8.40;7.65;;;;;;;22.76;73.82;100150.53;4960549;28;102554;-62
2021/07/04 07:18:57;;;;;;;7.70;7.05;;;;;;;22.77;73.65;100149.34;4944803;27;102707;-62
2021/07/04 07:21:25;;;;;;;8.20;7.50;;;;;;;22.77;73.72;100154.88;4941703;27;102713;-62
2021/07/04 07:23:53;;;;;;;7.80;7.10;;;;;;;22.78;73.72;100156.50;4948070;27;102551;-62
2021/07/04 07:26:19;;;;;;;7.73;7.13;;;;;;;22.79;73.77;100163.66;4947444;27;102724;-62
2021/07/04 07:28:46;;;;;;;7.93;7.22;;;;;;;22.79;73.45;100155.34;4942404;27;104042;-62
2021/07/04 07:31:13;;;;;;;7.90;7.30;;;;;;;22.81;73.64;100160.50;4940164;28;102323;-62
2021/07/04 07:33:39;;;;;;;8.10;7.40;;;;;;;22.81;73.62;100154.16;4936572;27;103295;-62
2021/07/04 07:36:06;;;;;;;7.72;7.05;;;;;;;22.81;73.43;100149.41;4942329;27;102400;-62
2021/07/04 07:38:33;;;;;;;7.28;6.68;;;;;;;22.82;73.57;100150.22;4945372;27;104185;-64
2021/07/04 07:41:01;;;;;;;7.68;7.07;;;;;;;22.82;73.51;100148.22;4946932;27;102155;-62
2021/07/04 07:43:27;;;;;;;7.80;7.20;;;;;;;22.83;73.59;100151.81;4954959;27;102527;-62
2021/07/04 07:45:54;;;;;;;8.02;7.32;;;;;;;22.84;73.77;100150.66;4959664;28;102443;-63
2021/07/04 07:48:20;;;;;;;7.63;7.03;;;;;;;22.84;73.48;100153.44;4959462;27;103984;-62
2021/07/04 07:50:49;;;;;;;8.00;7.40;;;;;;;22.84;73.35;100151.47;4945777;27;102347;-62
2021/07/04 07:53:15;;;;;;;8.05;7.25;;;;;;;22.85;73.32;100155.03;4944834;27;102568;-62
2021/07/04 07:55:42;;;;;;;7.35;6.75;;;;;;;22.84;73.33;100148.69;4940989;27;102646;-62
2021/07/04 07:58:10;;;;;;;7.85;7.28;;;;;;;22.83;73.34;100144.31;4943592;27;103954;-62
2021/07/04 08:00:37;;;;;;;8.20;7.40;;;;;;;22.84;73.61;100154.22;4946627;27;103124;-62
2021/07/04 08:03:03;;;;;;;8.40;7.70;;;;;;;22.85;73.60;100141.16;4949491;27;102417;-64
2021/07/04 08:05:30;;;;;;;7.22;6.60;;;;;;;22.85;73.59;100141.16;4948721;27;103234;-63
2021/07/04 08:07:56;;;;;;;8.02;7.32;;;;;;;22.84;73.53;100142.34;4945307;27;103343;-63
2021/07/04 08:10:23;;;;;;;7.68;7.07;;;;;;;22.84;73.46;100126.47;4947817;27;102418;-62
2021/07/04 08:12:50;;;;;;;7.50;6.90;;;;;;;22.85;73.39;100132.84;4944771;27;102653;-62
2021/07/04 08:15:18;;;;;;;8.05;7.38;;;;;;;22.83;73.58;100136.00;4936012;28;102350;-62
2021/07/04 08:17:45;;;;;;;7.77;7.10;;;;;;;22.84;73.44;100122.91;4950091;27;103981;-62
2021/07/04 08:20:16;;;;;;;8.10;7.45;;;;;;;22.85;73.48;100133.63;4940379;27;102507;-62
2021/07/04 08:22:44;;;;;;;7.97;7.28;;;;;;;22.85;73.51;100132.84;4942693;27;102154;-62
2021/07/04 08:25:12;;;;;;;8.27;7.25;;;;;;;22.84;73.54;100129.25;4945707;27;102345;-62
2021/07/04 08:27:39;;;;;;;7.97;7.30;;;;;;;22.84;73.53;100125.69;4937326;27;104397;-62
2021/07/04 08:30:09;;;;;;;8.00;7.00;;;;;;;22.84;73.56;100131.25;4945060;27;102412;-62
2021/07/04 08:32:37;;;;;;;8.02;7.38;;;;;;;22.84;73.34;100122.91;4942438;27;102605;-62
2021/07/04 08:35:05;;;;;;;7.47;6.87;;;;;;;22.84;73.56;100117.38;4942300;27;102884;-62
2021/07/04 08:37:32;;;;;;;7.53;6.93;;;;;;;22.85;73.29;100121.72;4941567;27;102929;-62
2021/07/04 08:40:00;;;;;;;6.93;6.40;;;;;;;22.84;73.43;100109.03;4938605;27;102239;-62
2021/07/04 08:42:27;;;;;;;7.60;7.00;;;;;;;22.83;73.51;100115.75;4944652;27;102172;-62
2021/07/04 08:44:55;;;;;;;7.97;7.28;;;;;;;22.84;73.28;100114.59;4946534;27;102420;-62
2021/07/04 08:47:24;;;;;;;7.63;6.93;;;;;;;22.83;73.32;100108.25;4943125;27;103890;-62
2021/07/04 08:49:52;;;;;;;;;;;;;;;22.84;73.43;100114.59;4935341;28;102186;-62
2021/07/04 08:52:20;;;;;;;7.68;6.97;;;;;;;22.84;73.24;100114.59;4945065;27;102148;-62
2021/07/04 08:54:47;;;;;;;7.18;6.57;;;;;;;22.84;73.41;100111.81;4948553;27;102783;-62
2021/07/04 08:57:16;;;;;;;7.53;6.82;;;;;;;22.85;73.47;100107.88;4939593;27;104031;-62
2021/07/04 08:59:45;;;;;;;7.45;6.85;;;;;;;22.83;73.35;100107.41;4938412;27;102532;-62
2021/07/04 09:02:15;;;;;;;7.72;7.03;;;;;;;22.81;73.35;100105.03;4935858;27;103185;-62
2021/07/04 09:05:01;;;;;;;7.47;6.82;;;;;;;22.82;73.60;100111.38;4934879;27;102610;-62
2021/07/04 09:07:28;;;;;;;7.32;6.72;;;;;;;22.83;73.44;100099.09;4941641;27;103686;-62
2021/07/04 09:09:56;;;;;;;7.53;6.93;;;;;;;22.81;73.42;100098.69;4942967;27;102526;-62
2021/07/04 09:12:34;;;;;;;6.82;6.22;;;;;;;22.82;73.37;100111.38;4944913;27;102440;-62
2021/07/04 09:15:08;;;;;;;7.72;7.03;;;;;;;22.82;73.42;100105.81;4938613;27;102772;-62
2021/07/04 09:17:37;;;;;;;7.50;6.80;;;;;;;22.83;73.40;100107.41;4951180;27;104063;-62
2021/07/04 09:20:07;;;;;;;7.45;6.80;;;;;;;22.82;73.22;100101.06;4939727;27;102248;-62
2021/07/04 09:22:40;;;;;;;7.53;6.93;;;;;;;22.82;73.29;100103.06;4944186;27;102220;-62
2021/07/04 09:25:09;;;;;;;7.50;6.80;;;;;;;22.80;73.62;100103.44;4937236;27;102197;-62
2021/07/04 09:27:36;;;;;;;6.90;6.40;;;;;;;22.82;73.36;100100.28;4940809;27;105419;-62
2021/07/04 09:30:05;;;;;;;7.78;6.93;;;;;;;22.81;73.42;100095.91;4945562;27;102047;-62
2021/07/04 09:32:32;;;;;;;;;;;;;;;22.82;73.20;100094.72;4934639;28;102178;-62
2021/07/04 09:35:01;;;;;;;6.72;6.03;;;;;;;22.80;73.43;100100.66;4949880;27;102336;-62
2021/07/04 09:37:35;;;;;;;7.78;7.07;;;;;;;22.79;73.46;100096.25;4937073;27;104668;-62
2021/07/04 09:40:23;;;;;;;7.30;6.70;;;;;;;22.78;73.36;100101.00;4939451;27;102716;-63
2021/07/04 09:43:04;;;;;;;7.68;7.07;;;;;;;22.79;73.56;100102.63;4930784;27;103044;-62
2021/07/04 09:45:46;;;;;;;7.65;6.95;;;;;;;22.79;73.58;100099.84;4937321;27;102488;-63
2021/07/04 09:48:15;;;;;;;7.90;7.13;;;;;;;22.79;73.50;100091.53;4940783;27;102892;-62
2021/07/04 09:50:44;;;;;;;6.72;6.22;;;;;;;22.81;73.45;100090.34;4945114;27;102681;-62
2021/07/04 09:53:13;;;;;;;7.32;6.72;;;;;;;22.79;73.42;100086.00;4937741;27;102709;-62
2021/07/04 09:55:40;;;;;;;7.03;6.43;;;;;;;22.81;73.36;100098.69;4939854;27;102289;-62
2021/07/04 09:58:09;;;;;;;6.97;6.45;;;;;;;22.78;73.47;100087.13;4937565;27;103887;-62
2021/07/04 10:00:38;;;;;;;6.75;6.25;;;;;;;22.79;73.37;100090.72;4943842;27;102418;-62
2021/07/04 10:03:14;;;;;;;7.63;7.03;;;;;;;22.78;73.42;100089.91;4935449;27;102503;-61
2021/07/04 10:05:43;;;;;;;7.53;6.82;;;;;;;22.79;73.39;100088.75;4933473;27;102405;-62
2021/07/04 10:08:21;;;;;;;;;;;;;;;22.78;73.51;100078.81;4943962;27;103893;-62
2021/07/04 10:10:48;;;;;;;7.57;6.88;;;;;;;22.80;73.67;100081.25;4943374;27;102223;-63
2021/07/04 10:13:15;;;;;;;7.30;6.70;;;;;;;22.79;73.54;100069.34;4943106;27;102424;-62
2021/07/04 10:15:43;;;;;;;7.45;6.85;;;;;;;22.78;73.30;100067.72;4944168;28;102465;-62
2021/07/04 10:18:11;;;;;;;7.63;6.95;;;;;;;22.78;73.56;100073.28;4931501;27;104502;-62
2021/07/04 10:20:38;;;;;;;7.07;6.50;;;;;;;22.78;73.68;100073.28;4945242;27;102174;-62
2021/07/04 10:23:06;;;;;;;6.72;6.22;;;;;;;22.77;73.42;100068.91;4943670;27;102740;-62
2021/07/04 10:25:49;;;;;;;7.10;6.50;;;;;;;22.77;73.42;100066.13;4943624;27;102562;-63
2021/07/04 10:28:23;;;;;;;7.40;6.80;;;;;;;22.78;73.50;100062.16;4934546;27;103999;-62
2021/07/04 10:30:50;;;;;;;9.18;7.05;;;;;;;22.78;73.35;100067.72;4940352;27;102399;-62
2021/07/04 10:33:19;;;;;;;7.38;6.78;;;;;;;22.78;73.59;100073.28;4943985;27;102683;-62
2021/07/04 10:36:07;;;;;;;7.20;6.60;;;;;;;22.78;73.80;100067.72;4954051;27;102179;-62
2021/07/04 10:38:53;;;;;;;7.38;6.82;;;;;;;22.77;73.62;100066.13;4941301;28;104043;-62
2021/07/04 10:41:24;;;;;;;7.45;6.85;;;;;;;22.76;73.31;100064.53;4942028;27;102427;-62
2021/07/04 10:44:08;;;;;;;7.05;6.47;;;;;;;22.77;73.48;100060.56;4946905;27;102455;-62
2021/07/04 10:47:04;;;;;;;7.57;6.97;;;;;;;22.77;73.46;100071.66;4937207;28;102897;-63
2021/07/04 10:49:40;;;;;;;7.13;6.60;;;;;;;22.78;73.57;100073.28;4948648;27;103484;-63
2021/07/04 10:52:10;;;;;;;7.78;7.18;;;;;;;22.77;73.59;100071.66;4944565;27;102060;-62
2021/07/04 10:54:47;;;;;;;7.18;6.57;;;;;;;22.77;73.57;100077.22;4938207;27;102425;-63
2021/07/04 10:57:19;;;;;;;7.40;6.70;;;;;;;22.77;73.42;100074.44;4939850;27;102606;-63
2021/07/04 10:59:51;;;;;;;7.55;6.85;;;;;;;22.77;73.61;100070.88;4932635;28;103895;-63
2021/07/04 11:02:39;;;;;;;7.57;6.97;;;;;;;22.77;73.50;100065.31;4937196;27;102446;-62
2021/07/04 11:05:06;;;;;;;7.20;6.60;;;;;;;22.76;73.54;100064.53;4939312;27;102545;-62
2021/07/04 11:08:05;;;;;;;7.43;6.72;;;;;;;22.76;73.33;100058.97;4946177;27;102202;-63
2021/07/04 11:10:34;;;;;;;7.85;7.15;;;;;;;22.76;73.42;100058.97;4946025;28;103896;-62
2021/07/04 11:13:29;;;;;;;7.07;6.57;;;;;;;22.76;73.45;100053.44;4944276;27;102309;-63
2021/07/04 11:16:13;;;;;;;7.05;6.45;;;;;;;22.77;73.56;100055.03;4951843;27;102480;-63
2021/07/04 11:18:44;;;;;;;7.28;6.68;;;;;;;22.77;73.63;100054.22;4946387;27;103264;-62
2021/07/04 11:21:11;;;;;;;;;;;;;;;22.76;73.34;100053.44;4944250;27;103916;-62
2021/07/04 11:23:37;;;;;;;7.38;6.72;;;;;;;22.77;73.46;100048.69;4944591;27;102353;-62
2021/07/04 11:26:13;;;;;;;7.47;6.88;;;;;;;22.78;73.39;100050.28;4941220;27;102684;-62